ePrivacy and GPDR Cookie Consent by Cookie Consent
EmailTwitter


Observations de surface / France / LFBO (07630)

Régions: Québec | Canada | États-Unis | Europe | France | UK | Ailleurs
Station
Affichage
Infos & localisation pour LFBO (07630) | Aide pour décoder les METARs

Observations prises le 2022-12-05 à 15H00 UTC à TOULOUSE/BLAGNAC, FR (LFBO)

Température: 11.0 Celsius

Point de rosée: 3.0 Celsius

Humidité relative: 58%

Vents: Nord-est à 9 km/h ou 5 noeuds.

Pression au niveau moyen de la mer: 101.60 kilopascals.

Observation METAR:

LFBO 051500Z AUTO 06005KT CAVOK 11/03 Q1016 NOSIG=